Jauru, Brazil
Current Conditions -  °F | °C
As of 3:00 PM on Sunday 21 Dec 2014 (Local Time) from SBCY Reporting Station
Thunderstorm Thunderstorm  
Wind Chill: 79°   Ceiling: 2000
Heat Index: 82°   Visibility: 6mi
Dew Point: 73°   Wind: 7mph
Humidity: 83%   Direction: 360°N
Pressure: 29.83"   Gusts: NA
Location:  15.34°S, 58.88°W
Report Text: SBCY 211800Z 36006KT 9999 TS BKN020 FEW025CB 26/23 Q1010
Loading
Personal Weather Stations






























Interactive Weather Map New forecast layout! Learn more

10-Day Weather Forecast

Advertisements
Track Severe Weather on mobile